Time;durP1;ratioP1;P1;durP2;ratioP2;P2;SDS_P1;SDS_P2;PMS_P1;PMS_P2;Temp;Humidity;BMP_temperature;BMP_pressure;BME280_temperature;BME280_humidity;BME280_pressure;Samples;Min_cycle;Max_cycle;Signal;HPM_P1;HPM_P2
2023/09/07 00:01:54;;;;;;;16.83;11.63;;;20.80;99.90;;;;;;5107717;27;20024;-69
2023/09/07 00:04:21;;;;;;;15.98;11.45;;;20.80;99.90;;;;;;5107708;28;20021;-67
2023/09/07 00:06:46;;;;;;;18.80;12.48;;;20.70;99.90;;;;;;5113031;28;20054;-68
2023/09/07 00:09:13;;;;;;;19.08;12.23;;;20.70;99.90;;;;;;5104775;28;20540;-67
2023/09/07 00:11:38;;;;;;;20.67;12.10;;;20.70;99.90;;;;;;5110880;28;20051;-67
2023/09/07 00:14:04;;;;;;;17.95;12.10;;;20.70;99.90;;;;;;5101505;28;20047;-66
2023/09/07 00:16:37;;;;;;;17.52;11.77;;;20.60;99.90;;;;;;5104462;28;20380;-69
2023/09/07 00:19:06;;;;;;;16.17;11.05;;;20.60;99.90;;;;;;5104405;28;20101;-66
2023/09/07 00:21:32;;;;;;;17.58;10.88;;;20.60;99.90;;;;;;5109636;28;20037;-67
2023/09/07 00:23:57;;;;;;;16.00;11.23;;;20.60;99.90;;;;;;5114429;28;20020;-67
2023/09/07 00:26:23;;;;;;;19.98;11.30;;;20.60;99.90;;;;;;5101567;28;20035;-67
2023/09/07 00:28:48;;;;;;;17.52;11.38;;;20.50;99.90;;;;;;5110326;28;20067;-68
2023/09/07 00:31:14;;;;;;;17.88;12.10;;;20.50;99.90;;;;;;5111099;28;20110;-68
2023/09/07 00:33:39;;;;;;;17.90;11.65;;;20.40;99.90;;;;;;5109707;28;20026;-68
2023/09/07 00:36:05;;;;;;;15.20;11.27;;;20.40;99.90;;;;;;5104244;28;20023;-68
2023/09/07 00:38:31;;;;;;;19.33;11.82;;;20.40;99.90;;;;;;5101802;28;20012;-67
2023/09/07 00:40:56;;;;;;;17.13;11.10;;;20.40;99.90;;;;;;5104251;28;20069;-67
2023/09/07 00:43:22;;;;;;;15.57;11.70;;;20.40;99.90;;;;;;5101194;28;20609;-67
2023/09/07 00:45:48;;;;;;;17.50;11.80;;;20.40;99.90;;;;;;5113000;28;20027;-68
2023/09/07 00:48:15;;;;;;;17.70;11.55;;;20.30;99.90;;;;;;5105929;28;20388;-67
2023/09/07 00:50:42;;;;;;;17.70;11.80;;;20.30;99.90;;;;;;5110826;28;20012;-67
2023/09/07 00:53:08;;;;;;;16.52;11.52;;;20.30;99.90;;;;;;5104582;28;20032;-67
2023/09/07 00:55:35;;;;;;;20.60;12.65;;;20.30;99.90;;;;;;5109773;28;20016;-67
2023/09/07 00:58:03;;;;;;;15.68;11.40;;;20.20;99.90;;;;;;5106548;28;20073;-68
2023/09/07 01:00:29;;;;;;;19.73;12.25;;;20.20;99.90;;;;;;5109085;28;20024;-68
2023/09/07 01:02:55;;;;;;;19.35;13.40;;;20.20;99.90;;;;;;5109771;28;20027;-66
2023/09/07 01:05:29;;;;;;;22.10;13.68;;;20.20;99.90;;;;;;5109325;28;20020;-69
2023/09/07 01:08:06;;;;;;;19.52;13.75;;;20.20;99.90;;;;;;5106467;28;20032;-68
2023/09/07 01:10:32;;;;;;;18.33;13.43;;;20.20;99.90;;;;;;5107003;28;20026;-68
2023/09/07 01:12:57;;;;;;;19.88;14.60;;;20.10;99.90;;;;;;5114913;28;20023;-68
2023/09/07 01:15:23;;;;;;;18.80;13.02;;;20.10;99.90;;;;;;5112384;28;20034;-67
2023/09/07 01:17:50;;;;;;;20.10;13.10;;;20.10;99.90;;;;;;5113423;28;20032;-67
2023/09/07 01:20:17;;;;;;;18.05;12.40;;;20.10;99.90;;;;;;5110060;28;20035;-68
2023/09/07 01:22:43;;;;;;;20.67;13.77;;;20.10;99.90;;;;;;5114446;28;20155;-67
2023/09/07 01:25:09;;;;;;;21.02;13.98;;;20.00;99.90;;;;;;5109722;27;20027;-70
2023/09/07 01:27:35;;;;;;;19.92;13.82;;;20.00;99.90;;;;;;5108850;28;20391;-67
2023/09/07 01:30:02;;;;;;;19.77;14.35;;;20.00;99.90;;;;;;5106226;28;20028;-66
2023/09/07 01:32:28;;;;;;;19.13;13.48;;;20.00;99.90;;;;;;5108832;28;20019;-69
2023/09/07 01:34:56;;;;;;;20.02;13.48;;;19.90;99.90;;;;;;5109214;28;20073;-68
2023/09/07 01:37:22;;;;;;;18.60;12.32;;;19.90;99.90;;;;;;5100321;28;20036;-67
2023/09/07 01:39:48;;;;;;;17.83;13.63;;;19.90;99.90;;;;;;5102094;28;20672;-68
2023/09/07 01:42:14;;;;;;;19.75;13.70;;;19.90;99.90;;;;;;5114001;28;20371;-68
2023/09/07 01:44:40;;;;;;;22.48;14.95;;;19.80;99.90;;;;;;5099613;28;20017;-67
2023/09/07 01:47:05;;;;;;;19.35;12.80;;;19.80;99.90;;;;;;5099742;28;20042;-68
2023/09/07 01:49:31;;;;;;;20.88;13.65;;;19.80;99.90;;;;;;5099660;28;20099;-67
2023/09/07 01:51:56;;;;;;;19.55;13.65;;;19.80;99.90;;;;;;5106104;28;20391;-67
2023/09/07 01:54:22;;;;;;;18.67;13.70;;;19.80;99.90;;;;;;5101417;28;20029;-66
2023/09/07 01:56:47;;;;;;;18.40;12.90;;;19.80;99.90;;;;;;5099969;28;20135;-68
2023/09/07 01:59:13;;;;;;;18.80;13.52;;;19.80;99.90;;;;;;5108864;28;20028;-67
2023/09/07 02:01:40;;;;;;;18.77;12.90;;;19.80;99.90;;;;;;5107470;28;20024;-67
2023/09/07 02:04:05;;;;;;;19.58;13.02;;;19.70;99.90;;;;;;5105488;28;20094;-68
2023/09/07 02:06:31;;;;;;;19.33;12.95;;;19.70;99.90;;;;;;5112394;28;20062;-67
2023/09/07 02:08:56;;;;;;;19.55;13.63;;;19.70;99.90;;;;;;5107113;28;20044;-67
2023/09/07 02:11:22;;;;;;;19.88;13.00;;;19.60;99.90;;;;;;5101280;28;20024;-66
2023/09/07 02:13:48;;;;;;;19.38;13.77;;;19.60;99.90;;;;;;5102965;28;20547;-66
2023/09/07 02:16:14;;;;;;;19.02;13.23;;;19.60;99.90;;;;;;5101994;28;20026;-67
2023/09/07 02:18:46;;;;;;;19.23;13.48;;;19.60;99.90;;;;;;5099272;28;20020;-68
2023/09/07 02:21:13;;;;;;;19.17;13.75;;;19.60;99.90;;;;;;5099258;28;20020;-67
2023/09/07 02:23:38;;;;;;;20.92;13.57;;;19.60;99.90;;;;;;5101219;28;20029;-67
2023/09/07 02:26:04;;;;;;;21.02;15.35;;;19.50;99.90;;;;;;5108563;28;20024;-66
2023/09/07 02:28:30;;;;;;;20.85;15.23;;;19.50;99.90;;;;;;5099909;28;20016;-67
2023/09/07 02:31:03;;;;;;;20.90;14.88;;;19.50;99.90;;;;;;5099191;28;20107;-65
2023/09/07 02:33:28;;;;;;;19.98;15.13;;;19.50;99.90;;;;;;5099164;28;20035;-67
2023/09/07 02:35:54;;;;;;;22.27;15.95;;;19.50;99.90;;;;;;5104289;28;20420;-67
2023/09/07 02:38:19;;;;;;;20.48;14.73;;;19.50;99.90;;;;;;5105900;28;20131;-67
2023/09/07 02:40:45;;;;;;;20.17;14.88;;;19.40;99.90;;;;;;5108050;28;20500;-67
2023/09/07 02:43:11;;;;;;;20.95;15.23;;;19.40;99.90;;;;;;5109005;28;20037;-65
2023/09/07 02:45:38;;;;;;;21.58;16.38;;;19.40;99.90;;;;;;5112063;28;20122;-66
2023/09/07 02:48:04;;;;;;;20.23;15.30;;;19.40;99.90;;;;;;5104721;28;20032;-68
2023/09/07 02:50:32;;;;;;;22.00;15.40;;;19.40;99.90;;;;;;5107194;28;20024;-68
2023/09/07 02:52:57;;;;;;;20.83;15.23;;;19.40;99.90;;;;;;5108204;27;20023;-67
2023/09/07 02:55:23;;;;;;;20.02;15.25;;;19.40;99.90;;;;;;5108148;28;20024;-67
2023/09/07 02:57:48;;;;;;;21.98;15.60;;;19.30;99.90;;;;;;5105214;28;20126;-67
2023/09/07 03:00:17;;;;;;;21.98;15.85;;;19.30;99.90;;;;;;5106168;28;20039;-67
2023/09/07 03:02:43;;;;;;;20.95;16.05;;;19.30;99.90;;;;;;5098814;28;20071;-66
2023/09/07 03:05:09;;;;;;;20.67;14.95;;;19.30;99.90;;;;;;5098329;28;20020;-67
2023/09/07 03:07:34;;;;;;;21.35;15.52;;;19.30;99.90;;;;;;5108600;28;20028;-66
2023/09/07 03:10:00;;;;;;;20.42;15.15;;;19.20;99.90;;;;;;5112721;28;20067;-67
2023/09/07 03:12:27;;;;;;;22.45;14.98;;;19.20;99.90;;;;;;5101260;28;20068;-67
2023/09/07 03:14:53;;;;;;;22.77;14.02;;;19.20;99.90;;;;;;5107964;28;20460;-67
2023/09/07 03:17:20;;;;;;;18.27;13.02;;;19.20;99.90;;;;;;5106976;28;20038;-66
2023/09/07 03:19:46;;;;;;;18.70;12.85;;;19.20;99.90;;;;;;5109407;28;20031;-66
2023/09/07 03:22:12;;;;;;;17.75;11.52;;;19.10;99.90;;;;;;5104097;28;20028;-65
2023/09/07 03:24:38;;;;;;;18.48;12.73;;;19.10;99.90;;;;;;5108874;28;20036;-66
2023/09/07 03:27:05;;;;;;;20.80;12.82;;;19.20;99.90;;;;;;5098574;28;20043;-66
2023/09/07 03:29:33;;;;;;;18.58;13.18;;;19.10;99.90;;;;;;5100234;28;20102;-66
2023/09/07 03:32:02;;;;;;;18.17;12.68;;;19.10;99.90;;;;;;5106349;28;20019;-66
2023/09/07 03:34:27;;;;;;;19.30;13.20;;;19.10;99.90;;;;;;5108687;28;20019;-65
2023/09/07 03:36:53;;;;;;;17.38;12.15;;;19.20;99.90;;;;;;5102646;28;20422;-66
2023/09/07 03:39:21;;;;;;;19.67;12.18;;;19.10;99.90;;;;;;5104948;28;20036;-65
2023/09/07 03:41:47;;;;;;;17.55;11.98;;;19.10;99.90;;;;;;5109483;28;20030;-64
2023/09/07 03:44:12;;;;;;;18.55;12.10;;;19.10;99.90;;;;;;5112862;28;20023;-66
2023/09/07 03:46:38;;;;;;;17.85;12.20;;;19.10;99.90;;;;;;5100834;28;20077;-66
2023/09/07 03:49:04;;;;;;;19.73;11.70;;;19.10;99.90;;;;;;5101703;28;20434;-66
2023/09/07 03:51:30;;;;;;;18.40;11.10;;;19.10;99.90;;;;;;5104836;28;20088;-66
2023/09/07 03:53:56;;;;;;;16.92;11.63;;;19.10;99.90;;;;;;5111048;28;20028;-66
2023/09/07 03:56:21;;;;;;;15.80;11.32;;;19.10;99.90;;;;;;5112490;28;20031;-65
2023/09/07 03:58:47;;;;;;;17.90;11.40;;;19.10;99.90;;;;;;5100687;28;20114;-66
2023/09/07 04:01:13;;;;;;;20.38;11.50;;;19.10;99.90;;;;;;5107743;28;20103;-66
2023/09/07 04:03:40;;;;;;;17.30;11.15;;;19.10;99.90;;;;;;5103128;28;20028;-66
2023/09/07 04:06:06;;;;;;;19.83;11.50;;;19.10;99.90;;;;;;5100815;28;20035;-67
2023/09/07 04:08:32;;;;;;;17.20;11.45;;;19.10;99.90;;;;;;5113076;28;20048;-67
2023/09/07 04:10:57;;;;;;;16.25;10.82;;;19.00;99.90;;;;;;5116930;28;20039;-67
2023/09/07 04:13:23;;;;;;;16.85;11.02;;;19.10;99.90;;;;;;5111964;28;20028;-67
2023/09/07 04:15:49;;;;;;;20.33;12.15;;;19.10;99.90;;;;;;5116798;28;20501;-65
2023/09/07 04:18:16;;;;;;;19.70;11.73;;;19.00;99.90;;;;;;5099868;28;20463;-68
2023/09/07 04:20:42;;;;;;;18.92;11.68;;;19.00;99.90;;;;;;5112330;28;20513;-66
2023/09/07 04:23:08;;;;;;;18.83;11.77;;;19.00;99.90;;;;;;5104675;28;20035;-67
2023/09/07 04:25:33;;;;;;;17.83;12.07;;;18.90;99.90;;;;;;5111805;28;20391;-66
2023/09/07 04:28:00;;;;;;;17.88;12.10;;;19.00;99.90;;;;;;5116391;28;20036;-66
2023/09/07 04:30:25;;;;;;;17.23;12.13;;;18.90;99.90;;;;;;5099587;28;20425;-67
2023/09/07 04:32:51;;;;;;;20.90;12.40;;;18.90;99.90;;;;;;5110472;28;20024;-66
2023/09/07 04:35:16;;;;;;;16.92;11.32;;;18.90;99.90;;;;;;5100615;28;20035;-66
2023/09/07 04:37:43;;;;;;;22.80;11.80;;;18.90;99.90;;;;;;5116815;28;20035;-66
2023/09/07 04:40:09;;;;;;;19.73;11.50;;;18.90;99.90;;;;;;5098752;28;20150;-66
2023/09/07 04:42:35;;;;;;;19.05;11.48;;;18.90;99.90;;;;;;5113291;28;20020;-66
2023/09/07 04:45:01;;;;;;;20.52;11.57;;;18.80;99.90;;;;;;5115946;28;20073;-66
2023/09/07 04:47:26;;;;;;;19.50;11.57;;;18.90;99.90;;;;;;5116042;28;20441;-67
2023/09/07 04:49:52;;;;;;;20.85;12.32;;;18.90;99.90;;;;;;5112796;28;20096;-66
2023/09/07 04:52:18;;;;;;;20.90;12.65;;;18.90;99.90;;;;;;5114703;28;20055;-66
2023/09/07 04:54:44;;;;;;;18.75;13.18;;;18.80;99.90;;;;;;5100493;28;20020;-65
2023/09/07 04:57:10;;;;;;;19.83;13.55;;;18.90;99.90;;;;;;5107737;28;20464;-66
2023/09/07 04:59:35;;;;;;;18.75;12.85;;;18.90;99.90;;;;;;5107023;28;20024;-65
2023/09/07 05:02:01;;;;;;;20.65;12.65;;;18.80;99.90;;;;;;5112471;28;20074;-66
2023/09/07 05:04:27;;;;;;;19.60;13.15;;;18.80;99.90;;;;;;5098265;28;20169;-65
2023/09/07 05:06:53;;;;;;;19.17;12.52;;;18.80;99.90;;;;;;5114157;28;20086;-66
2023/09/07 05:09:20;;;;;;;16.45;11.68;;;18.80;99.90;;;;;;5106027;28;20064;-67
2023/09/07 05:11:45;;;;;;;17.55;12.13;;;18.80;99.90;;;;;;5114561;28;20042;-66
2023/09/07 05:14:11;;;;;;;16.98;11.60;;;18.80;99.90;;;;;;5115236;28;20027;-65
2023/09/07 05:16:37;;;;;;;18.58;12.40;;;18.80;99.90;;;;;;5102923;28;20062;-66
2023/09/07 05:19:03;;;;;;;21.17;13.05;;;18.70;99.90;;;;;;5112961;28;20031;-65
2023/09/07 05:21:28;;;;;;;17.50;11.48;;;18.70;99.90;;;;;;5115440;28;20034;-66
2023/09/07 05:23:54;;;;;;;17.27;11.25;;;18.70;99.90;;;;;;5105170;28;20028;-65
2023/09/07 05:26:26;;;;;;;17.60;11.15;;;18.70;99.90;;;;;;5112869;28;20031;-64
2023/09/07 05:28:51;;;;;;;16.05;11.00;;;18.70;99.90;;;;;;5099286;28;20042;-66
2023/09/07 05:31:17;;;;;;;21.60;11.07;;;18.60;99.90;;;;;;5104543;28;20032;-65
2023/09/07 05:33:42;;;;;;;18.50;13.10;;;18.60;99.90;;;;;;5107778;28;20036;-64
2023/09/07 05:36:08;;;;;;;21.45;14.65;;;18.60;99.90;;;;;;5106518;28;20019;-65
2023/09/07 05:38:34;;;;;;;18.77;12.57;;;18.60;99.90;;;;;;5096881;28;20020;-65
2023/09/07 05:41:00;;;;;;;20.95;14.05;;;18.60;99.90;;;;;;5114329;28;20024;-65
2023/09/07 05:43:25;;;;;;;25.42;14.90;;;18.60;99.90;;;;;;5114247;28;20402;-66
2023/09/07 05:45:51;;;;;;;20.95;14.30;;;18.60;99.90;;;;;;5110199;28;20023;-65
2023/09/07 05:48:17;;;;;;;21.02;14.02;;;18.70;99.90;;;;;;5111779;28;20080;-65
2023/09/07 05:50:43;;;;;;;21.02;13.60;;;18.70;99.90;;;;;;5114365;28;20039;-65
2023/09/07 05:53:08;;;;;;;21.50;14.60;;;18.80;99.90;;;;;;5107965;28;20475;-66
2023/09/07 05:55:34;;;;;;;21.55;13.77;;;18.80;99.90;;;;;;5112998;28;20027;-66
2023/09/07 05:58:03;;;;;;;21.50;14.02;;;18.80;99.90;;;;;;5097747;28;20020;-65
2023/09/07 06:00:29;;;;;;;20.05;14.65;;;18.90;99.90;;;;;;5111215;28;20034;-65
2023/09/07 06:02:55;;;;;;;21.70;15.27;;;19.00;99.90;;;;;;5100812;28;20020;-66
2023/09/07 06:05:21;;;;;;;21.00;15.05;;;19.10;99.90;;;;;;5106025;28;20036;-66
2023/09/07 06:07:46;;;;;;;21.23;14.77;;;19.20;99.90;;;;;;5101572;28;20043;-66
2023/09/07 06:10:12;;;;;;;20.60;14.57;;;19.30;99.90;;;;;;5107637;28;20062;-66
2023/09/07 06:12:38;;;;;;;21.77;14.65;;;19.40;99.90;;;;;;5113117;28;20020;-65
2023/09/07 06:15:04;;;;;;;21.40;13.77;;;19.50;99.90;;;;;;5107066;28;20035;-65
2023/09/07 06:17:29;;;;;;;20.30;13.02;;;19.50;99.90;;;;;;5105360;28;20455;-66
2023/09/07 06:19:56;;;;;;;20.23;13.15;;;19.60;99.90;;;;;;5099725;28;20024;-65
2023/09/07 06:22:22;;;;;;;21.95;14.35;;;19.70;99.90;;;;;;5110833;28;20027;-66
2023/09/07 06:24:47;;;;;;;19.10;14.60;;;19.80;99.90;;;;;;5107051;28;20027;-66
2023/09/07 06:27:13;;;;;;;22.00;13.93;;;19.90;99.90;;;;;;5095813;28;20411;-65
2023/09/07 06:29:38;;;;;;;20.58;13.32;;;20.00;99.90;;;;;;5106203;28;20382;-64
2023/09/07 06:32:04;;;;;;;22.02;13.43;;;20.10;99.90;;;;;;5098449;28;20078;-65
2023/09/07 06:34:31;;;;;;;25.75;15.02;;;20.20;99.90;;;;;;5109894;28;20032;-65
2023/09/07 06:36:56;;;;;;;23.48;14.15;;;20.20;99.90;;;;;;5100062;28;20031;-66
2023/09/07 06:39:22;;;;;;;22.40;13.55;;;20.40;99.90;;;;;;5103502;28;20070;-66
2023/09/07 06:41:48;;;;;;;22.02;13.55;;;20.50;99.90;;;;;;5106452;28;20087;-65
2023/09/07 06:44:14;;;;;;;19.00;14.00;;;20.50;99.90;;;;;;5110355;28;20046;-66
2023/09/07 06:46:39;;;;;;;23.27;14.25;;;20.70;99.90;;;;;;5097119;28;20043;-66
2023/09/07 06:49:05;;;;;;;19.98;13.27;;;20.80;99.90;;;;;;5106207;28;20032;-66
2023/09/07 06:51:31;;;;;;;21.38;13.15;;;20.90;99.90;;;;;;5095625;28;20028;-66
2023/09/07 06:53:57;;;;;;;20.88;13.63;;;21.00;99.90;;;;;;5106691;28;20031;-66
2023/09/07 06:56:23;;;;;;;20.17;12.98;;;21.10;99.90;;;;;;5111889;28;20042;-67
2023/09/07 06:58:49;;;;;;;23.25;12.82;;;21.30;99.90;;;;;;5110197;28;20066;-65
2023/09/07 07:01:15;;;;;;;24.17;13.85;;;21.40;99.90;;;;;;5104893;28;20024;-65
2023/09/07 07:03:40;;;;;;;23.60;12.57;;;21.50;99.90;;;;;;5105304;28;20035;-65
2023/09/07 07:06:06;;;;;;;20.88;12.05;;;21.70;99.90;;;;;;5097234;28;20043;-66
2023/09/07 07:08:31;;;;;;;19.08;12.15;;;21.90;99.90;;;;;;5110346;28;20478;-65
2023/09/07 07:10:57;;;;;;;20.30;11.52;;;22.00;99.90;;;;;;5101256;28;20524;-66
2023/09/07 07:13:23;;;;;;;21.42;12.13;;;22.10;99.90;;;;;;5104497;28;20031;-66
2023/09/07 07:15:49;;;;;;;20.55;11.52;;;22.30;99.90;;;;;;5109983;28;20126;-64
2023/09/07 07:18:16;;;;;;;24.42;12.40;;;22.50;99.90;;;;;;5105826;28;20063;-66
2023/09/07 07:20:45;;;;;;;20.00;10.45;;;22.70;99.90;;;;;;5113052;28;20019;-66
2023/09/07 07:23:17;;;;;;;20.08;10.98;;;22.90;99.90;;;;;;5104622;28;20032;-65
2023/09/07 07:25:47;;;;;;;;;;;23.30;99.90;;;;;;5100377;28;20054;-66
2023/09/07 07:28:14;;;;;;;23.33;11.20;;;23.80;99.90;;;;;;5109820;28;19918;-66
2023/09/07 07:30:42;;;;;;;18.35;9.95;;;24.30;99.90;;;;;;5096825;28;20023;-66
2023/09/07 07:33:09;;;;;;;18.65;9.95;;;25.00;99.90;;;;;;5104616;28;20024;-66
2023/09/07 07:35:35;;;;;;;21.42;10.23;;;25.90;99.90;;;;;;5099804;28;20032;-66
2023/09/07 07:38:03;;;;;;;20.92;9.18;;;26.80;99.90;;;;;;5108440;28;20027;-66
2023/09/07 07:40:29;;;;;;;19.27;8.82;;;27.90;99.90;;;;;;5095829;28;20034;-65
2023/09/07 07:42:55;;;;;;;16.15;8.52;;;29.00;99.90;;;;;;5113147;28;20103;-65
2023/09/07 07:45:21;;;;;;;16.10;7.57;;;30.20;99.90;;;;;;5103444;28;20033;-65
2023/09/07 07:47:49;;;;;;;16.10;7.07;;;31.30;99.80;;;;;;5101954;28;20058;-67
2023/09/07 07:50:15;;;;;;;12.57;5.45;;;32.30;97.60;;;;;;5103678;28;20028;-66
2023/09/07 07:52:41;;;;;;;11.75;6.07;;;33.10;95.40;;;;;;5092861;28;20019;-66
2023/09/07 07:55:07;;;;;;;10.63;5.05;;;33.70;94.40;;;;;;5099423;28;20028;-66
2023/09/07 07:57:33;;;;;;;8.55;5.00;;;34.30;92.80;;;;;;5099879;28;20414;-67
2023/09/07 07:59:58;;;;;;;7.65;4.75;;;34.70;92.00;;;;;;5101121;28;20023;-67
2023/09/07 08:02:24;;;;;;;10.57;4.25;;;35.10;91.40;;;;;;5108332;28;20020;-67
2023/09/07 08:04:50;;;;;;;8.40;4.03;;;35.60;90.30;;;;;;5102695;28;20024;-67
2023/09/07 08:07:16;;;;;;;9.95;4.32;;;35.90;88.80;;;;;;5112450;28;20044;-67
2023/09/07 08:09:41;;;;;;;9.75;4.30;;;36.00;88.10;;;;;;5099419;28;20059;-67
2023/09/07 08:12:07;;;;;;;9.80;4.53;;;36.10;87.30;;;;;;5097179;28;20063;-66
2023/09/07 08:14:33;;;;;;;9.00;4.13;;;36.20;87.40;;;;;;5106133;28;20085;-65
2023/09/07 08:16:59;;;;;;;9.90;4.38;;;36.60;87.80;;;;;;5116954;28;20405;-67
2023/09/07 08:19:25;;;;;;;6.35;3.88;;;37.20;87.40;;;;;;5116702;28;20067;-68
2023/09/07 08:21:51;;;;;;;7.35;3.70;;;37.80;85.10;;;;;;5116155;27;20027;-67
2023/09/07 08:24:16;;;;;;;11.02;4.00;;;38.30;84.50;;;;;;5116994;27;20028;-66
2023/09/07 08:26:43;;;;;;;7.82;4.00;;;38.70;82.40;;;;;;5111106;28;20145;-67
2023/09/07 08:29:10;;;;;;;5.90;3.67;;;38.70;81.20;;;;;;5107687;28;20020;-67
2023/09/07 08:31:38;;;;;;;5.63;3.60;;;38.90;80.90;;;;;;5113060;28;20494;-66
2023/09/07 08:34:06;;;;;;;6.07;3.80;;;39.20;80.90;;;;;;5111735;28;20080;-67
2023/09/07 08:36:33;;;;;;;6.82;3.70;;;39.60;79.50;;;;;;5116514;28;20035;-66
2023/09/07 08:39:01;;;;;;;8.55;3.90;;;39.80;78.10;;;;;;5114549;28;20035;-67
2023/09/07 08:41:27;;;;;;;7.03;4.10;;;39.80;78.20;;;;;;5095799;28;20032;-66
2023/09/07 08:43:55;;;;;;;9.05;3.47;;;39.70;77.90;;;;;;5096670;28;20032;-66
2023/09/07 08:46:23;;;;;;;7.30;3.50;;;39.80;77.50;;;;;;5105015;28;20024;-66
2023/09/07 08:48:52;;;;;;;7.15;3.63;;;39.90;77.30;;;;;;5114450;28;20035;-67
2023/09/07 08:51:19;;;;;;;9.25;4.25;;;40.20;76.30;;;;;;5111583;28;20103;-67
2023/09/07 08:53:49;;;;;;;7.35;3.67;;;40.40;75.50;;;;;;5115224;28;20038;-66
2023/09/07 08:56:16;;;;;;;7.32;3.60;;;40.40;74.90;;;;;;5103173;28;20019;-66
2023/09/07 08:58:41;;;;;;;5.47;3.28;;;40.40;74.90;;;;;;5105234;28;20103;-66
2023/09/07 09:01:08;;;;;;;6.07;3.28;;;40.50;75.00;;;;;;5109757;28;20035;-67
2023/09/07 09:03:35;;;;;;;5.97;3.53;;;40.70;74.20;;;;;;5104453;28;20019;-67
2023/09/07 09:06:01;;;;;;;11.73;3.47;;;41.00;73.50;;;;;;5106970;28;20036;-67
2023/09/07 09:08:27;;;;;;;10.27;3.80;;;41.10;73.10;;;;;;5105112;28;20043;-67
2023/09/07 09:11:03;;;;;;;7.13;3.60;;;41.20;73.30;;;;;;5106490;28;20023;-67
2023/09/07 09:13:32;;;;;;;4.55;3.10;;;41.40;72.80;;;;;;5115158;28;20114;-67
2023/09/07 09:16:01;;;;;;;7.00;3.20;;;41.70;72.30;;;;;;5115802;28;20085;-66
2023/09/07 09:18:27;;;;;;;4.20;3.20;;;42.00;71.40;;;;;;5102685;28;20032;-66
2023/09/07 09:21:00;;;;;;;6.80;3.20;;;41.80;71.10;;;;;;5108982;28;20027;-67
2023/09/07 09:23:36;;;;;;;4.47;3.20;;;41.70;71.50;;;;;;5095600;28;20034;-67
2023/09/07 09:26:03;;;;;;;7.80;2.80;;;41.80;71.10;;;;;;5094877;28;20107;-68
2023/09/07 09:28:34;;;;;;;7.10;2.85;;;41.80;70.90;;;;;;5094430;28;20085;-67
2023/09/07 09:31:02;;;;;;;5.57;3.03;;;42.00;70.80;;;;;;5106618;28;20028;-67
2023/09/07 09:33:31;;;;;;;5.82;3.05;;;42.40;70.70;;;;;;5105023;28;20016;-68
2023/09/07 09:35:57;;;;;;;7.13;3.47;;;42.70;69.90;;;;;;5113482;28;20023;-66
2023/09/07 09:38:22;;;;;;;7.68;3.08;;;42.90;69.50;;;;;;5099210;28;20023;-68
2023/09/07 09:40:49;;;;;;;7.40;3.03;;;43.20;69.90;;;;;;5111202;28;20475;-68
2023/09/07 09:43:15;;;;;;;7.18;3.13;;;43.60;69.40;;;;;;5114303;28;20035;-68
2023/09/07 09:45:40;;;;;;;8.05;3.80;;;44.10;68.90;;;;;;5113678;28;20020;-69
2023/09/07 09:48:06;;;;;;;4.63;3.20;;;44.40;67.90;;;;;;5112716;28;20043;-68
2023/09/07 09:50:38;;;;;;;6.30;3.22;;;44.70;67.70;;;;;;5108283;28;20024;-67
2023/09/07 09:53:07;;;;;;;7.60;3.50;;;44.90;67.00;;;;;;5115065;28;20116;-67
2023/09/07 09:55:36;;;;;;;5.07;3.45;;;44.90;67.30;;;;;;5114936;28;20356;-66
2023/09/07 09:58:02;;;;;;;6.45;3.40;;;44.90;66.80;;;;;;5099076;28;20024;-67
2023/09/07 10:00:29;;;;;;;4.57;3.20;;;44.70;66.70;;;;;;5114325;28;20019;-67
2023/09/07 10:03:07;;;;;;;8.43;3.58;;;44.60;66.90;;;;;;5114167;28;20024;-68
2023/09/07 10:05:34;;;;;;;6.43;3.08;;;44.80;66.80;;;;;;5102613;28;20032;-67
2023/09/07 10:08:13;;;;;;;6.32;3.47;;;45.10;67.30;;;;;;5105058;28;20068;-67
2023/09/07 10:10:38;;;;;;;5.13;3.50;;;45.40;66.50;;;;;;5096419;28;20050;-67
2023/09/07 10:13:05;;;;;;;6.60;3.30;;;45.40;66.30;;;;;;5094365;28;20021;-67
2023/09/07 10:15:31;;;;;;;8.77;4.00;;;45.30;66.60;;;;;;5094555;28;20035;-68
2023/09/07 10:18:12;;;;;;;8.77;3.33;;;45.20;66.30;;;;;;5095478;28;20516;-67
2023/09/07 10:20:51;;;;;;;8.07;3.60;;;45.10;66.80;;;;;;5110497;28;20548;-69
2023/09/07 10:23:16;;;;;;;9.02;3.40;;;45.10;66.60;;;;;;5111506;28;20031;-68
2023/09/07 10:25:42;;;;;;;7.35;3.38;;;45.30;66.50;;;;;;5114490;28;20037;-70
2023/09/07 10:28:22;;;;;;;7.05;2.97;;;45.50;65.70;;;;;;5113417;28;20091;-68
2023/09/07 10:31:03;;;;;;;6.03;3.10;;;45.70;66.00;;;;;;5114566;28;20023;-67
2023/09/07 10:33:32;;;;;;;6.75;3.08;;;46.00;65.30;;;;;;5113928;28;20031;-69
2023/09/07 10:35:58;;;;;;;10.10;3.38;;;46.00;65.00;;;;;;5113958;28;20057;-66
2023/09/07 10:38:24;;;;;;;5.50;3.00;;;45.90;64.80;;;;;;5113742;28;20031;-67
2023/09/07 10:40:57;;;;;;;5.95;3.03;;;45.70;64.70;;;;;;5113802;28;20036;-67
2023/09/07 10:43:26;;;;;;;6.35;3.13;;;45.50;64.80;;;;;;5113447;28;20038;-67
2023/09/07 10:45:53;;;;;;;6.35;3.63;;;45.60;64.60;;;;;;5114121;28;20024;-67
2023/09/07 10:48:19;;;;;;;5.20;3.72;;;45.60;64.30;;;;;;5107593;28;20036;-67
2023/09/07 10:50:45;;;;;;;8.93;3.53;;;45.50;64.40;;;;;;5106266;28;20114;-68
2023/09/07 10:53:23;;;;;;;6.55;3.17;;;45.40;65.00;;;;;;5113887;28;20110;-68
2023/09/07 10:55:49;;;;;;;9.23;3.42;;;45.70;65.00;;;;;;5102138;28;20085;-69
2023/09/07 10:58:30;;;;;;;5.43;3.30;;;45.90;64.20;;;;;;5103479;28;20028;-68
2023/09/07 11:00:57;;;;;;;5.95;3.45;;;46.00;64.10;;;;;;5108923;28;20028;-70
2023/09/07 11:03:24;;;;;;;5.97;3.67;;;46.30;63.80;;;;;;5104238;28;20019;-67
2023/09/07 11:05:51;;;;;;;6.68;3.33;;;46.30;63.50;;;;;;5108431;28;20085;-69
2023/09/07 11:08:16;;;;;;;8.20;3.40;;;46.10;63.70;;;;;;5105827;28;20451;-68
2023/09/07 11:10:42;;;;;;;9.93;3.60;;;46.00;63.40;;;;;;5104256;28;20106;-68
2023/09/07 11:13:09;;;;;;;5.47;3.45;;;45.80;63.70;;;;;;5109603;28;20027;-69
2023/09/07 11:15:35;;;;;;;6.53;3.25;;;45.90;63.20;;;;;;5111424;28;20032;-66
2023/09/07 11:18:08;;;;;;;6.70;3.72;;;45.70;63.50;;;;;;5105183;28;20027;-70
2023/09/07 11:20:39;;;;;;;8.63;3.50;;;45.60;63.20;;;;;;5107231;28;20123;-67
2023/09/07 11:23:05;;;;;;;8.43;3.40;;;45.30;63.90;;;;;;5106229;28;20038;-67
2023/09/07 11:25:38;;;;;;;5.53;3.05;;;45.10;63.90;;;;;;5107093;28;20028;-67
2023/09/07 11:28:05;;;;;;;7.47;4.05;;;44.90;63.90;;;;;;5107420;28;20504;-68
2023/09/07 11:30:34;;;;;;;10.45;4.10;;;44.90;63.80;;;;;;5105879;28;20055;-70
2023/09/07 11:33:09;;;;;;;7.38;3.40;;;45.00;63.70;;;;;;5106313;28;20076;-67
2023/09/07 11:35:37;;;;;;;7.00;3.90;;;45.10;63.60;;;;;;5107661;28;20040;-68
2023/09/07 11:38:04;;;;;;;6.97;3.50;;;44.80;63.80;;;;;;5106977;28;20023;-67
2023/09/07 11:40:33;;;;;;;7.40;3.90;;;44.40;64.20;;;;;;5104348;28;20028;-66
2023/09/07 11:42:59;;;;;;;5.72;3.60;;;44.00;64.20;;;;;;5103105;28;20062;-66
2023/09/07 11:45:25;;;;;;;6.88;3.85;;;43.80;64.40;;;;;;5102933;28;20059;-68
2023/09/07 11:47:50;;;;;;;8.82;3.85;;;43.60;64.90;;;;;;5105280;28;20047;-67
2023/09/07 11:50:20;;;;;;;7.82;4.15;;;43.50;65.00;;;;;;5112056;28;20038;-68
2023/09/07 11:52:46;;;;;;;7.15;3.65;;;43.50;65.10;;;;;;5109160;28;20016;-68
2023/09/07 11:55:14;;;;;;;4.05;3.40;;;43.60;65.20;;;;;;5105949;28;20042;-68
2023/09/07 11:57:44;;;;;;;7.82;3.40;;;43.70;65.00;;;;;;5109073;28;20132;-68
2023/09/07 12:00:11;;;;;;;6.57;4.00;;;43.90;64.80;;;;;;5115229;28;20514;-68
2023/09/07 12:02:38;;;;;;;5.75;3.88;;;44.00;64.30;;;;;;5109399;28;20039;-68
2023/09/07 12:05:07;;;;;;;5.07;3.88;;;43.70;64.50;;;;;;5108094;28;20100;-68
2023/09/07 12:07:32;;;;;;;5.88;4.00;;;43.50;64.90;;;;;;5110898;28;20085;-68
2023/09/07 12:09:58;;;;;;;5.65;4.00;;;43.30;65.20;;;;;;5109404;28;20039;-68
2023/09/07 12:12:23;;;;;;;7.85;3.85;;;43.30;65.40;;;;;;5105379;28;20085;-68
2023/09/07 12:14:49;;;;;;;7.78;3.88;;;43.20;65.60;;;;;;5110039;28;20516;-69
2023/09/07 12:17:15;;;;;;;7.57;3.97;;;43.10;66.10;;;;;;5105977;28;20131;-68
2023/09/07 12:19:45;;;;;;;6.82;3.78;;;42.90;65.50;;;;;;5108620;28;20047;-68
2023/09/07 12:22:11;;;;;;;6.70;4.10;;;43.00;66.20;;;;;;5105835;28;20042;-70
2023/09/07 12:24:37;;;;;;;5.32;3.60;;;43.30;65.80;;;;;;5103232;28;20460;-70
2023/09/07 12:27:03;;;;;;;6.28;4.20;;;43.50;65.50;;;;;;5108984;28;20031;-69
2023/09/07 12:29:28;;;;;;;7.10;4.03;;;43.60;65.30;;;;;;5108005;28;20060;-68
2023/09/07 12:31:54;;;;;;;7.65;4.40;;;43.40;65.50;;;;;;5106954;28;20471;-67
2023/09/07 12:34:19;;;;;;;6.00;3.45;;;43.10;65.30;;;;;;5110029;28;20484;-69